createdAt,value
2017-11-20T00:00:19.184Z,84.00
2017-11-20T00:02:45.624Z,85.00
2017-11-20T00:05:12.024Z,84.40
2017-11-20T00:07:39.156Z,83.80
2017-11-20T00:10:06.313Z,85.30
2017-11-20T00:12:33.465Z,84.60
2017-11-20T00:15:00.625Z,84.30
2017-11-20T00:17:27.030Z,84.30
2017-11-20T00:19:53.454Z,85.20
2017-11-20T00:22:19.882Z,85.60
2017-11-20T00:24:46.328Z,86.30
2017-11-20T00:27:12.772Z,86.50
2017-11-20T00:29:39.925Z,87.00
2017-11-20T00:32:07.084Z,87.10
2017-11-20T00:34:34.258Z,86.30
2017-11-20T00:37:00.657Z,86.10
2017-11-20T00:39:27.884Z,86.10
2017-11-20T00:41:54.276Z,86.10
2017-11-20T00:44:20.652Z,86.40
2017-11-20T00:46:47.056Z,85.00
2017-11-20T00:49:13.455Z,86.40
2017-11-20T00:51:39.861Z,86.70
2017-11-20T00:54:06.280Z,86.60
2017-11-20T00:56:32.693Z,86.70
2017-11-20T00:58:59.116Z,86.40
2017-11-20T01:01:25.516Z,87.30
2017-11-20T01:03:51.947Z,87.00
2017-11-20T01:06:18.383Z,87.20
2017-11-20T01:08:44.842Z,86.30
2017-11-20T01:11:11.271Z,86.90
2017-11-20T01:13:37.676Z,86.60
2017-11-20T01:16:04.857Z,84.90
2017-11-20T01:18:31.276Z,84.90
2017-11-20T01:20:57.652Z,85.70
2017-11-20T01:23:24.052Z,85.50
2017-11-20T01:25:50.480Z,84.90
2017-11-20T01:28:16.861Z,85.10
2017-11-20T01:30:43.292Z,85.30
2017-11-20T01:33:09.715Z,85.70
2017-11-20T01:35:36.117Z,85.70
2017-11-20T01:38:02.556Z,85.30
2017-11-20T01:40:29.009Z,85.30
2017-11-20T01:42:56.190Z,84.50
2017-11-20T01:45:23.373Z,84.10
2017-11-20T01:47:49.804Z,83.80
2017-11-20T01:50:16.241Z,84.30
2017-11-20T01:52:42.672Z,84.60
2017-11-20T01:55:09.155Z,84.50
2017-11-20T01:57:35.580Z,83.90
2017-11-20T02:00:02.022Z,84.10
2017-11-20T02:02:28.487Z,84.40
2017-11-20T02:04:55.666Z,85.80
2017-11-20T02:07:22.061Z,85.70
2017-11-20T02:09:49.246Z,86.10
2017-11-20T02:12:15.678Z,86.00
2017-11-20T02:14:42.116Z,85.50
2017-11-20T02:17:08.516Z,85.60
2017-11-20T02:19:35.692Z,85.10
2017-11-20T02:22:02.129Z,85.10
2017-11-20T02:24:33.539Z,85.20
2017-11-20T02:26:59.976Z,85.20
2017-11-20T02:29:27.200Z,85.50
2017-11-20T02:31:53.646Z,85.50
2017-11-20T02:34:20.876Z,85.50
2017-11-20T02:36:47.310Z,85.30
2017-11-20T02:39:14.486Z,85.60
2017-11-20T02:41:41.677Z,86.00
2017-11-20T02:44:08.151Z,85.10
2017-11-20T02:46:35.336Z,85.40
2017-11-20T02:49:02.530Z,85.00
2017-11-20T02:51:28.956Z,84.80
2017-11-20T02:53:55.552Z,84.90
2017-11-20T02:56:22.717Z,84.20
2017-11-20T02:58:49.173Z,84.20
2017-11-20T03:01:15.642Z,83.20
2017-11-20T03:03:43.054Z,81.70
2017-11-20T03:06:09.483Z,81.60
2017-11-20T03:08:35.932Z,81.40
2017-11-20T03:11:02.386Z,81.30
2017-11-20T03:13:28.825Z,82.00
2017-11-20T03:15:55.291Z,82.70
2017-11-20T03:18:22.449Z,83.40
2017-11-20T03:20:49.659Z,83.40
2017-11-20T03:23:16.121Z,83.40
2017-11-20T03:25:42.573Z,83.10
2017-11-20T03:28:09.020Z,83.20
2017-11-20T03:30:35.455Z,82.90
2017-11-20T03:33:01.934Z,83.30
2017-11-20T03:35:28.336Z,83.00
2017-11-20T03:37:54.931Z,83.00
2017-11-20T03:40:22.103Z,84.70
2017-11-20T03:42:48.640Z,83.90
2017-11-20T03:45:15.109Z,83.60
2017-11-20T03:47:41.509Z,83.80
2017-11-20T03:50:07.958Z,83.20
2017-11-20T03:52:34.393Z,82.70
2017-11-20T03:55:00.771Z,83.40
2017-11-20T03:57:27.238Z,83.20
2017-11-20T03:59:53.641Z,82.80
2017-11-20T04:02:20.846Z,82.10
2017-11-20T04:04:48.002Z,82.80
2017-11-20T04:07:14.416Z,82.80
2017-11-20T04:09:40.852Z,83.30
2017-11-20T04:12:07.277Z,82.70
2017-11-20T04:14:33.694Z,83.00
2017-11-20T04:17:00.109Z,83.00
2017-11-20T04:19:27.268Z,83.00
2017-11-20T04:21:54.420Z,83.60
2017-11-20T04:24:21.590Z,83.50
2017-11-20T04:26:47.998Z,83.50
2017-11-20T04:29:15.177Z,82.70
2017-11-20T04:31:41.624Z,82.60
2017-11-20T04:34:08.110Z,82.60
2017-11-20T04:36:35.253Z,82.40
2017-11-20T04:39:02.463Z,83.10
2017-11-20T04:41:28.885Z,82.60
2017-11-20T04:43:55.321Z,83.50
2017-11-20T04:46:21.771Z,82.50
2017-11-20T04:48:48.201Z,82.60
2017-11-20T04:51:14.641Z,82.50
2017-11-20T04:53:41.096Z,82.20
2017-11-20T04:56:07.545Z,82.30
2017-11-20T04:58:34.704Z,82.30
2017-11-20T05:01:01.885Z,81.80
2017-11-20T05:03:28.289Z,81.70
2017-11-20T05:05:55.452Z,80.30
2017-11-20T05:08:21.869Z,80.20
2017-11-20T05:10:49.049Z,79.80
2017-11-20T05:13:15.463Z,79.80
2017-11-20T05:15:41.864Z,81.20
2017-11-20T05:18:08.286Z,81.70
2017-11-20T05:20:34.684Z,82.10
2017-11-20T05:23:01.105Z,82.00
2017-11-20T05:25:27.525Z,81.30
2017-11-20T05:27:53.916Z,80.50
2017-11-20T05:30:20.366Z,79.00
2017-11-20T05:32:46.828Z,78.20
2017-11-20T05:35:13.244Z,77.70
2017-11-20T05:37:40.392Z,77.00
2017-11-20T05:40:07.591Z,77.60
2017-11-20T05:42:34.004Z,77.40
2017-11-20T05:45:00.380Z,76.00
2017-11-20T05:47:26.837Z,75.60
2017-11-20T05:49:53.315Z,75.00
2017-11-20T05:52:19.775Z,75.30
2017-11-20T05:54:46.356Z,74.50
2017-11-20T05:57:12.872Z,74.30
2017-11-20T05:59:40.097Z,74.50
2017-11-20T06:02:06.521Z,74.40
2017-11-20T06:04:32.961Z,74.70
2017-11-20T06:06:59.385Z,73.80
2017-11-20T06:09:25.790Z,73.10
2017-11-20T06:11:52.201Z,72.80
2017-11-20T06:14:19.355Z,72.60
2017-11-20T06:16:46.496Z,72.30
2017-11-20T06:19:13.664Z,73.10
2017-11-20T06:21:40.062Z,73.10
2017-11-20T06:24:06.516Z,72.40
2017-11-20T06:26:33.677Z,72.20
2017-11-20T06:29:00.066Z,72.20
2017-11-20T06:31:26.476Z,72.60
2017-11-20T06:33:52.884Z,74.30
2017-11-20T06:36:19.269Z,72.60
2017-11-20T06:38:45.685Z,73.50
2017-11-20T06:41:12.832Z,74.10
2017-11-20T06:43:39.265Z,74.10
2017-11-20T06:46:05.736Z,73.90
2017-11-20T06:48:32.883Z,74.50
2017-11-20T06:51:00.073Z,74.20
2017-11-20T06:53:26.488Z,74.10
2017-11-20T06:55:53.076Z,73.90
2017-11-20T06:58:20.286Z,74.60
2017-11-20T07:00:46.692Z,74.60
2017-11-20T07:03:13.972Z,74.60
2017-11-20T07:05:40.355Z,74.50
2017-11-20T07:08:06.755Z,75.10
2017-11-20T07:10:33.173Z,74.80
2017-11-20T07:12:59.588Z,74.50
2017-11-20T07:15:26.766Z,74.70
2017-11-20T07:17:53.159Z,74.70
2017-11-20T07:20:20.325Z,73.70
2017-11-20T07:22:46.720Z,73.70
2017-11-20T07:25:25.457Z,74.60
2017-11-20T07:28:00.131Z,74.40
2017-11-20T07:30:30.184Z,73.60
2017-11-20T07:32:56.668Z,73.60
2017-11-20T07:35:23.293Z,74.00
2017-11-20T07:38:01.914Z,74.40
2017-11-20T07:40:40.455Z,73.20
2017-11-20T07:43:07.661Z,73.70
2017-11-20T07:45:34.869Z,73.40
2017-11-20T07:48:01.255Z,72.70
2017-11-20T07:50:27.677Z,71.60
2017-11-20T07:52:54.867Z,71.00
2017-11-20T07:55:22.155Z,71.60
2017-11-20T07:57:48.660Z,72.40
2017-11-20T08:00:15.405Z,71.50
2017-11-20T08:02:42.615Z,70.20
2017-11-20T08:05:09.838Z,69.40
2017-11-20T08:07:37.085Z,69.00
2017-11-20T08:10:04.264Z,68.60
2017-11-20T08:12:31.416Z,68.80
2017-11-20T08:14:58.620Z,67.90
2017-11-20T08:17:25.816Z,68.40
2017-11-20T08:19:52.963Z,66.80
2017-11-20T08:22:20.100Z,66.60
2017-11-20T08:24:46.512Z,66.60
2017-11-20T08:27:13.680Z,67.10
2017-11-20T08:29:40.079Z,67.00
2017-11-20T08:32:06.492Z,66.40
2017-11-20T08:34:33.703Z,63.70
2017-11-20T08:37:00.853Z,64.30
2017-11-20T08:39:28.024Z,64.40
2017-11-20T08:41:55.160Z,63.80
2017-11-20T08:44:22.299Z,64.70
2017-11-20T08:46:48.792Z,64.70
2017-11-20T08:49:15.443Z,63.70
2017-11-20T08:51:42.601Z,64.10
2017-11-20T08:54:09.114Z,64.10
2017-11-20T08:56:35.577Z,63.80
2017-11-20T08:59:02.085Z,63.60
2017-11-20T09:01:28.583Z,61.90
2017-11-20T09:03:55.072Z,61.00
2017-11-20T09:06:21.548Z,60.50
2017-11-20T09:08:48.702Z,61.60
2017-11-20T09:11:15.265Z,62.60
2017-11-20T09:13:41.716Z,64.10
2017-11-20T09:16:08.904Z,60.30
2017-11-20T09:18:36.108Z,60.20
2017-11-20T09:21:02.637Z,60.20
2017-11-20T09:23:29.231Z,59.10
2017-11-20T09:25:55.699Z,58.60
2017-11-20T09:28:22.135Z,58.20
2017-11-20T09:30:48.633Z,59.30
2017-11-20T09:33:15.861Z,57.30
2017-11-20T09:35:42.281Z,57.30
2017-11-20T09:38:08.728Z,57.00
2017-11-20T09:40:35.123Z,56.40
2017-11-20T09:43:01.558Z,55.80
2017-11-20T09:45:27.964Z,55.50
2017-11-20T09:47:55.161Z,54.10
2017-11-20T09:50:21.619Z,54.10
2017-11-20T09:52:48.061Z,55.10
2017-11-20T09:55:14.524Z,54.90
2017-11-20T09:57:40.976Z,54.60
2017-11-20T10:00:07.440Z,52.20
2017-11-20T10:02:33.899Z,49.80
2017-11-20T10:05:01.140Z,48.80
2017-11-20T10:07:27.616Z,48.80
2017-11-20T10:09:54.056Z,46.90
2017-11-20T10:12:20.500Z,48.00
2017-11-20T10:14:46.971Z,48.70
2017-11-20T10:17:13.454Z,48.00
2017-11-20T10:19:39.900Z,43.50
2017-11-20T10:22:06.379Z,41.40
2017-11-20T10:24:32.845Z,38.80
2017-11-20T10:26:59.297Z,37.20
2017-11-20T10:29:25.837Z,34.50
2017-11-20T10:31:53.040Z,31.00
2017-11-20T10:34:19.519Z,30.80
2017-11-20T10:36:45.976Z,29.40
2017-11-20T10:39:12.420Z,28.50
2017-11-20T10:41:38.867Z,27.20
2017-11-20T10:44:05.445Z,29.30
2017-11-20T10:46:31.909Z,29.00
2017-11-20T10:48:58.357Z,28.90
2017-11-20T10:51:24.808Z,32.30
2017-11-20T10:53:51.259Z,34.00
2017-11-20T10:56:18.465Z,32.90
2017-11-20T10:58:44.898Z,32.90
2017-11-20T11:01:11.323Z,28.70
2017-11-20T11:03:37.793Z,26.30
2017-11-20T11:06:04.257Z,25.80
2017-11-20T11:08:30.693Z,27.10
2017-11-20T11:10:57.157Z,27.30
2017-11-20T11:13:23.620Z,26.80
2017-11-20T11:15:50.088Z,25.10
2017-11-20T11:18:16.578Z,27.00
2017-11-20T11:20:43.013Z,27.50
2017-11-20T11:23:09.469Z,27.30
2017-11-20T11:25:36.640Z,28.70
2017-11-20T11:28:03.115Z,28.70
2017-11-20T11:30:29.650Z,28.10
2017-11-20T11:32:56.133Z,29.60
2017-11-20T11:35:23.561Z,28.60
2017-11-20T11:37:49.989Z,29.00
2017-11-20T11:40:16.452Z,30.20
2017-11-20T11:42:43.622Z,30.10
2017-11-20T11:45:10.166Z,30.10
2017-11-20T11:47:36.616Z,33.30
2017-11-20T11:50:03.065Z,32.40
2017-11-20T11:52:29.559Z,34.20
2017-11-20T11:54:56.067Z,33.10
2017-11-20T11:57:23.257Z,36.20
2017-11-20T11:59:49.716Z,36.10
2017-11-20T12:02:16.184Z,37.00
2017-11-20T12:04:43.405Z,35.40
2017-11-20T12:07:10.729Z,34.70
2017-11-20T12:09:37.194Z,35.00
2017-11-20T12:12:03.697Z,35.80
2017-11-20T12:14:30.145Z,34.70
2017-11-20T12:16:56.613Z,34.10
2017-11-20T12:19:23.173Z,34.70
2017-11-20T12:21:49.689Z,34.40
2017-11-20T12:24:16.185Z,34.70
2017-11-20T12:26:42.633Z,34.40
2017-11-20T12:29:09.135Z,35.20
2017-11-20T12:31:35.583Z,33.90
2017-11-20T12:34:02.089Z,36.50
2017-11-20T12:36:28.541Z,36.20
2017-11-20T12:38:55.016Z,35.50
2017-11-20T12:41:21.488Z,35.00
2017-11-20T12:43:48.055Z,34.20
2017-11-20T12:46:14.593Z,34.00
2017-11-20T12:48:41.121Z,32.60
2017-11-20T12:51:07.651Z,30.80
2017-11-20T12:53:34.164Z,30.90
2017-11-20T12:56:00.620Z,31.50
2017-11-20T12:58:27.281Z,30.00
2017-11-20T13:00:53.873Z,30.60
2017-11-20T13:03:20.389Z,30.50
2017-11-20T13:05:47.596Z,29.80
2017-11-20T13:08:14.021Z,29.70
2017-11-20T13:10:40.520Z,31.40
2017-11-20T13:13:07.714Z,31.40
2017-11-20T13:15:34.206Z,31.40
2017-11-20T13:18:01.383Z,30.30
2017-11-20T13:20:27.883Z,30.30
2017-11-20T13:22:55.133Z,30.90
2017-11-20T13:25:22.316Z,31.10
2017-11-20T13:27:48.734Z,31.10
2017-11-20T13:30:15.962Z,29.40
2017-11-20T13:32:42.458Z,29.40
2017-11-20T13:35:08.897Z,29.70
2017-11-20T13:37:35.397Z,32.80
2017-11-20T13:40:01.852Z,33.80
2017-11-20T13:42:28.344Z,32.40
2017-11-20T13:44:55.598Z,34.10
2017-11-20T13:47:22.999Z,36.50
2017-11-20T13:49:50.242Z,33.00
2017-11-20T13:52:16.696Z,32.90
2017-11-20T13:54:43.577Z,35.80
2017-11-20T13:57:10.133Z,35.10
2017-11-20T13:59:37.539Z,36.80
2017-11-20T14:02:03.983Z,36.80
2017-11-20T14:04:30.520Z,36.50
2017-11-20T14:06:57.441Z,38.00
2017-11-20T14:09:24.060Z,37.60
2017-11-20T14:11:50.616Z,36.00
2017-11-20T14:14:17.172Z,38.30
2017-11-20T14:16:43.831Z,39.20
2017-11-20T14:19:11.024Z,41.00
2017-11-20T14:21:37.552Z,40.90
2017-11-20T14:24:04.003Z,41.10
2017-11-20T14:26:30.613Z,41.20
2017-11-20T14:28:57.213Z,42.00
2017-11-20T14:31:26.898Z,42.30
2017-11-20T14:33:53.969Z,42.30
2017-11-20T14:36:20.892Z,42.50
2017-11-20T14:38:47.506Z,41.10
2017-11-20T14:41:14.510Z,42.30
2017-11-20T14:43:41.316Z,43.50
2017-11-20T14:46:08.000Z,44.00
2017-11-20T14:48:39.676Z,43.30
2017-11-20T14:54:03.124Z,44.10
2017-11-20T14:56:30.504Z,44.60
2017-11-20T14:58:57.024Z,44.60
2017-11-20T15:01:33.225Z,43.20
2017-11-20T15:03:59.793Z,43.10
2017-11-20T15:06:26.257Z,43.30
2017-11-20T15:08:53.610Z,42.10
2017-11-20T15:11:20.842Z,42.80
2017-11-20T15:13:47.449Z,42.70
2017-11-20T15:16:14.880Z,43.50
2017-11-20T15:18:41.575Z,44.30
2017-11-20T15:21:08.792Z,45.50
2017-11-20T15:23:35.309Z,44.90
2017-11-20T15:26:01.910Z,44.40
2017-11-20T15:28:29.161Z,42.00
2017-11-20T15:30:56.374Z,40.70
2017-11-20T15:33:22.851Z,40.70
2017-11-20T15:35:50.078Z,43.90
2017-11-20T15:38:16.565Z,43.90
2017-11-20T15:40:43.032Z,44.60
2017-11-20T15:43:09.480Z,44.40
2017-11-20T15:45:35.936Z,43.80
2017-11-20T15:48:03.170Z,41.30
2017-11-20T15:50:29.658Z,41.30
2017-11-20T15:52:56.342Z,43.80
2017-11-20T15:55:22.928Z,45.20
2017-11-20T15:57:49.358Z,46.40
2017-11-20T16:00:16.112Z,47.10
2017-11-20T16:02:43.085Z,48.00
2017-11-20T16:05:09.981Z,48.60
2017-11-20T16:07:36.566Z,49.00
2017-11-20T16:10:03.149Z,49.10
2017-11-20T16:12:29.610Z,49.40
2017-11-20T16:14:56.641Z,48.30
2017-11-20T16:17:23.226Z,49.70
2017-11-20T16:19:49.973Z,49.30
2017-11-20T16:22:16.436Z,49.20
2017-11-20T16:24:43.075Z,50.10
2017-11-20T16:27:09.655Z,50.20
2017-11-20T16:29:37.110Z,51.40
2017-11-20T16:32:03.552Z,51.40
2017-11-20T16:34:33.293Z,50.60
2017-11-20T16:37:02.721Z,50.80
2017-11-20T16:39:29.134Z,52.10
2017-11-20T16:41:57.204Z,53.50
2017-11-20T16:44:28.180Z,54.20
2017-11-20T16:46:54.754Z,54.20
2017-11-20T16:49:21.233Z,53.60
2017-11-20T16:51:48.036Z,54.50
2017-11-20T16:54:14.705Z,54.60
2017-11-20T16:56:41.278Z,54.20
2017-11-20T16:59:07.988Z,54.70
2017-11-20T17:01:58.625Z,54.70
2017-11-20T17:04:25.181Z,55.60
2017-11-20T17:06:51.576Z,55.30
2017-11-20T17:09:18.033Z,54.90
2017-11-20T17:11:44.455Z,55.40
2017-11-20T17:14:10.902Z,56.00
2017-11-20T17:16:37.313Z,56.10
2017-11-20T17:19:03.764Z,56.20
2017-11-20T17:21:30.192Z,56.10
2017-11-20T17:23:56.861Z,57.10
2017-11-20T17:26:24.028Z,58.30
2017-11-20T17:28:51.200Z,57.90
2017-11-20T17:31:17.617Z,57.90
2017-11-20T17:33:44.845Z,57.70
2017-11-20T17:36:12.024Z,58.30
2017-11-20T17:38:39.184Z,57.90
2017-11-20T17:41:05.649Z,57.90
2017-11-20T17:43:32.069Z,58.40
2017-11-20T17:45:58.462Z,59.00
2017-11-20T17:48:25.882Z,58.20
2017-11-20T17:50:52.701Z,58.30
2017-11-20T17:53:19.217Z,58.80
2017-11-20T17:55:45.745Z,58.60
2017-11-20T17:58:12.137Z,59.30
2017-11-20T18:00:38.700Z,59.70
2017-11-20T18:03:05.132Z,59.50
2017-11-20T18:05:32.354Z,59.60
2017-11-20T18:07:58.793Z,59.50
2017-11-20T18:10:25.941Z,59.80
2017-11-20T18:12:52.436Z,59.70
2017-11-20T18:15:18.935Z,57.90
2017-11-20T18:17:45.629Z,59.80
2017-11-20T18:20:12.258Z,60.20
2017-11-20T18:22:38.757Z,61.00
2017-11-20T18:25:06.749Z,60.60
2017-11-20T18:27:33.308Z,60.60
2017-11-20T18:29:59.761Z,60.50
2017-11-20T18:32:26.209Z,59.90
2017-11-20T18:34:53.465Z,61.40
2017-11-20T18:37:20.095Z,61.30
2017-11-20T18:39:46.533Z,61.60
2017-11-20T18:42:13.748Z,61.20
2017-11-20T18:44:40.169Z,61.20
2017-11-20T18:47:06.978Z,61.70
2017-11-20T18:49:33.498Z,61.40
2017-11-20T18:52:00.028Z,62.00
2017-11-20T18:54:27.240Z,62.60
2017-11-20T18:56:53.700Z,62.60
2017-11-20T18:59:20.245Z,62.70
2017-11-20T19:01:59.679Z,61.90
2017-11-20T19:04:39.087Z,61.70
2017-11-20T19:07:17.642Z,61.60
2017-11-20T19:09:44.089Z,62.20
2017-11-20T19:12:11.258Z,62.50
2017-11-20T19:14:37.739Z,62.40
2017-11-20T19:17:04.352Z,62.80
2017-11-20T19:19:30.788Z,64.20
2017-11-20T19:21:57.208Z,64.10
2017-11-20T19:24:23.662Z,64.00
2017-11-20T19:26:50.091Z,63.10
2017-11-20T19:29:16.572Z,62.80
2017-11-20T19:31:43.736Z,63.60
2017-11-20T19:34:10.961Z,64.20
2017-11-20T19:36:37.400Z,64.10
2017-11-20T19:39:03.865Z,64.60
2017-11-20T19:41:30.327Z,64.90
2017-11-20T19:43:56.820Z,65.30
2017-11-20T19:46:23.256Z,65.50
2017-11-20T19:48:50.393Z,66.40
2017-11-20T19:51:17.553Z,65.60
2017-11-20T19:53:44.777Z,64.80
2017-11-20T19:56:11.969Z,65.30
2017-11-20T19:58:38.360Z,65.30
2017-11-20T20:01:04.833Z,66.30
2017-11-20T20:03:31.257Z,65.90
2017-11-20T20:05:57.755Z,65.60
2017-11-20T20:08:24.915Z,65.50
2017-11-20T20:10:51.298Z,65.40
2017-11-20T20:13:17.769Z,65.20
2017-11-20T20:18:34.321Z,65.40
2017-11-20T20:21:01.500Z,65.60
2017-11-20T20:23:28.049Z,65.50
2017-11-20T20:25:54.448Z,66.00
2017-11-20T20:28:21.614Z,64.70
2017-11-20T20:30:47.993Z,64.50
2017-11-20T20:33:14.417Z,64.40
2017-11-20T20:35:40.809Z,64.40
2017-11-20T20:38:07.192Z,65.00
2017-11-20T20:40:33.673Z,65.50
2017-11-20T20:43:00.187Z,66.10
2017-11-20T20:45:26.694Z,66.50
2017-11-20T20:47:53.942Z,66.50
2017-11-20T20:50:20.357Z,66.30
2017-11-20T20:52:46.777Z,66.70
2017-11-20T20:55:13.187Z,67.60
2017-11-20T20:57:39.732Z,67.80
2017-11-20T21:00:06.213Z,68.10
2017-11-20T21:02:32.653Z,68.20
2017-11-20T21:04:59.083Z,68.60
2017-11-20T21:07:26.442Z,68.10
2017-11-20T21:09:58.882Z,67.90
2017-11-20T21:12:25.271Z,68.40
2017-11-20T21:14:52.495Z,68.70
2017-11-20T21:17:19.661Z,68.40
2017-11-20T21:19:53.245Z,68.40
2017-11-20T21:22:19.745Z,67.80
2017-11-20T21:24:46.181Z,67.80
2017-11-20T21:27:12.580Z,67.20
2017-11-20T21:29:39.144Z,67.80
2017-11-20T21:32:05.555Z,66.70
2017-11-20T21:34:32.717Z,65.80
2017-11-20T21:36:59.154Z,65.80
2017-11-20T21:39:25.553Z,65.70
2017-11-20T21:41:52.719Z,66.40
2017-11-20T21:44:19.913Z,67.00
2017-11-20T21:46:46.321Z,67.00
2017-11-20T21:49:12.792Z,66.50
2017-11-20T21:51:39.236Z,66.80
2017-11-20T21:54:05.689Z,65.90
2017-11-20T21:56:32.865Z,67.00
2017-11-20T21:58:59.283Z,66.40
2017-11-20T22:01:26.410Z,67.70
2017-11-20T22:03:52.840Z,67.60
2017-11-20T22:06:19.281Z,67.40
2017-11-20T22:08:46.449Z,68.40
2017-11-20T22:11:13.641Z,68.40
2017-11-20T22:13:40.094Z,68.40
2017-11-20T22:16:06.537Z,68.00
2017-11-20T22:18:32.961Z,68.00
2017-11-20T22:20:59.378Z,68.00
2017-11-20T22:23:25.805Z,68.30
2017-11-20T22:25:52.264Z,68.60
2017-11-20T22:28:18.725Z,68.60
2017-11-20T22:30:45.904Z,68.00
2017-11-20T22:33:12.357Z,68.00
2017-11-20T22:35:39.498Z,67.80
2017-11-20T22:38:05.968Z,67.90
2017-11-20T22:40:32.406Z,67.40
2017-11-20T22:42:58.836Z,67.50
2017-11-20T22:45:25.298Z,67.50
2017-11-20T22:47:52.472Z,67.50
2017-11-20T22:50:18.864Z,68.30
2017-11-20T22:52:45.325Z,67.30
2017-11-20T22:55:11.713Z,69.10
2017-11-20T22:57:38.156Z,68.50
2017-11-20T23:00:05.314Z,68.60
2017-11-20T23:02:31.785Z,68.60
2017-11-20T23:04:58.197Z,68.20
2017-11-20T23:07:27.065Z,69.70
2017-11-20T23:09:54.020Z,69.70
2017-11-20T23:12:21.210Z,69.80
2017-11-20T23:14:47.634Z,69.80
2017-11-20T23:17:14.042Z,69.70
2017-11-20T23:19:41.207Z,70.40
2017-11-20T23:22:07.626Z,70.40
2017-11-20T23:24:34.909Z,69.80
2017-11-20T23:27:01.336Z,69.80
2017-11-20T23:29:27.781Z,70.50
2017-11-20T23:31:54.204Z,70.60
2017-11-20T23:34:20.643Z,70.40
2017-11-20T23:36:47.064Z,69.20
2017-11-20T23:39:13.463Z,70.20
2017-11-20T23:41:39.878Z,68.40
2017-11-20T23:44:06.334Z,70.40
2017-11-20T23:46:33.480Z,70.40
2017-11-20T23:48:59.877Z,70.40
2017-11-20T23:51:26.305Z,70.30
2017-11-20T23:53:52.845Z,70.30
2017-11-20T23:56:19.290Z,69.80
2017-11-20T23:58:45.662Z,69.60
